createdAt,value
2019-02-21T00:02:58.952Z,6.40
2019-02-21T00:06:02.393Z,6.40
2019-02-21T00:09:07.146Z,6.30
2019-02-21T00:12:10.585Z,6.30
2019-02-21T00:15:14.019Z,6.40
2019-02-21T00:18:17.461Z,6.40
2019-02-21T00:21:20.890Z,6.50
2019-02-21T00:24:24.336Z,6.50
2019-02-21T00:27:27.753Z,6.50
2019-02-21T00:30:35.290Z,6.50
2019-02-21T00:33:36.319Z,6.60
2019-02-21T00:36:39.766Z,6.70
2019-02-21T00:39:43.204Z,6.70
2019-02-21T00:42:46.647Z,6.70
2019-02-21T00:45:50.064Z,6.70
2019-02-21T00:48:53.502Z,6.70
2019-02-21T00:51:56.916Z,6.80
2019-02-21T00:55:00.425Z,6.80
2019-02-21T00:58:03.855Z,6.80
2019-02-21T01:01:07.284Z,6.70
2019-02-21T01:04:10.995Z,6.70
2019-02-21T01:07:14.433Z,6.70
2019-02-21T01:10:17.854Z,6.70
2019-02-21T01:13:21.304Z,6.70
2019-02-21T01:16:24.712Z,6.70
2019-02-21T01:19:28.147Z,6.70
2019-02-21T01:22:31.572Z,6.60
2019-02-21T01:25:34.986Z,6.60
2019-02-21T01:28:38.435Z,6.60
2019-02-21T01:31:41.864Z,6.60
2019-02-21T01:34:45.287Z,6.60
2019-02-21T01:37:48.720Z,6.60
2019-02-21T01:40:52.165Z,6.70
2019-02-21T01:43:55.613Z,6.80
2019-02-21T01:46:59.024Z,6.80
2019-02-21T01:50:02.472Z,6.80
2019-02-21T01:53:05.896Z,6.80
2019-02-21T01:56:09.345Z,6.80
2019-02-21T01:59:12.842Z,6.70
2019-02-21T02:02:16.282Z,6.70
2019-02-21T02:05:19.684Z,6.70
2019-02-21T02:08:23.143Z,6.70
2019-02-21T02:11:26.576Z,6.70
2019-02-21T02:14:30.004Z,6.70
2019-02-21T02:17:33.468Z,6.60
2019-02-21T02:20:36.905Z,6.60
2019-02-21T02:23:40.330Z,6.60
2019-02-21T02:26:43.784Z,6.50
2019-02-21T02:29:47.225Z,6.60
2019-02-21T02:32:50.681Z,6.60
2019-02-21T02:35:54.088Z,6.60
2019-02-21T02:38:57.543Z,6.60
2019-02-21T02:42:00.947Z,6.60
2019-02-21T02:45:06.468Z,6.70
2019-02-21T02:48:10.070Z,6.70
2019-02-21T02:51:13.568Z,6.70
2019-02-21T02:54:17.007Z,6.70
2019-02-21T02:57:20.439Z,6.70
2019-02-21T03:00:23.877Z,6.70
2019-02-21T03:03:27.305Z,6.70
2019-02-21T03:06:30.756Z,6.60
2019-02-21T03:09:34.180Z,6.60
2019-02-21T03:12:37.638Z,6.60
2019-02-21T03:15:41.064Z,6.60
2019-02-21T03:18:44.509Z,6.60
2019-02-21T03:21:47.964Z,6.70
2019-02-21T03:24:51.411Z,6.70
2019-02-21T03:27:54.863Z,6.70
2019-02-21T03:30:58.328Z,6.70
2019-02-21T03:34:01.815Z,6.70
2019-02-21T03:37:05.273Z,6.70
2019-02-21T03:40:10.065Z,6.80
2019-02-21T03:43:13.516Z,6.80
2019-02-21T03:46:16.961Z,6.70
2019-02-21T03:49:20.412Z,6.80
2019-02-21T03:52:23.950Z,6.80
2019-02-21T03:55:27.360Z,6.80
2019-02-21T03:58:30.823Z,6.80
2019-02-21T04:01:34.237Z,6.90
2019-02-21T04:04:37.692Z,6.90
2019-02-21T04:07:41.104Z,6.90
2019-02-21T04:10:44.564Z,6.80
2019-02-21T04:13:48.002Z,6.80
2019-02-21T04:16:51.497Z,6.80
2019-02-21T04:19:55.004Z,6.80
2019-02-21T04:22:58.424Z,6.80
2019-02-21T04:26:01.876Z,6.80
2019-02-21T04:29:05.304Z,6.80
2019-02-21T04:32:16.684Z,6.80
2019-02-21T04:35:13.897Z,6.80
2019-02-21T04:38:17.420Z,6.80
2019-02-21T04:41:20.856Z,6.80
2019-02-21T04:44:24.314Z,6.80
2019-02-21T04:47:27.778Z,6.80
2019-02-21T04:50:31.217Z,6.80
2019-02-21T04:53:34.650Z,6.80
2019-02-21T04:56:38.096Z,6.70
2019-02-21T04:59:41.560Z,6.70
2019-02-21T05:02:45.027Z,6.70
2019-02-21T05:05:48.471Z,6.70
2019-02-21T05:08:51.887Z,6.60
2019-02-21T05:11:55.340Z,6.60
2019-02-21T05:15:05.286Z,6.70
2019-02-21T05:18:08.716Z,6.60
2019-02-21T05:21:12.162Z,6.50
2019-02-21T05:24:15.585Z,6.40
2019-02-21T05:27:20.667Z,6.50
2019-02-21T05:30:25.964Z,6.40
2019-02-21T05:33:36.736Z,6.50
2019-02-21T05:36:47.748Z,6.50
2019-02-21T05:39:52.824Z,6.50
2019-02-21T05:43:00.833Z,6.50
2019-02-21T05:46:08.817Z,6.60
2019-02-21T05:49:19.640Z,6.50
2019-02-21T05:52:24.719Z,6.50
2019-02-21T05:55:29.874Z,6.50
2019-02-21T05:58:49.924Z,6.60
2019-02-21T06:01:57.704Z,6.50
2019-02-21T06:05:02.847Z,6.50
2019-02-21T06:08:24.364Z,6.60
2019-02-21T06:11:29.537Z,6.60
2019-02-21T06:14:37.549Z,6.60
2019-02-21T06:17:45.465Z,6.60
2019-02-21T06:21:02.422Z,6.50
2019-02-21T06:24:13.475Z,6.50
2019-02-21T06:27:18.557Z,6.50
2019-02-21T06:30:26.570Z,6.50
2019-02-21T06:33:30.101Z,6.40
2019-02-21T06:36:33.532Z,6.40
2019-02-21T06:39:36.990Z,6.40
2019-02-21T06:42:40.444Z,6.40
2019-02-21T06:45:43.867Z,6.40
2019-02-21T06:48:47.321Z,6.40
2019-02-21T06:51:50.753Z,6.40
2019-02-21T06:54:54.192Z,6.40
2019-02-21T06:57:57.644Z,6.40
2019-02-21T07:01:01.056Z,6.40
2019-02-21T07:04:04.505Z,6.40
2019-02-21T07:07:07.936Z,6.30
2019-02-21T07:10:11.456Z,6.30
2019-02-21T07:13:25.815Z,6.40
2019-02-21T07:16:20.077Z,6.40
2019-02-21T07:19:23.527Z,6.50
2019-02-21T07:22:26.965Z,6.60
2019-02-21T07:25:32.534Z,6.60
2019-02-21T07:28:36.028Z,6.60
2019-02-21T07:31:39.484Z,6.70
2019-02-21T07:34:42.943Z,6.90
2019-02-21T07:37:46.421Z,6.90
2019-02-21T07:40:49.863Z,6.90
2019-02-21T07:43:53.364Z,6.90
2019-02-21T07:46:56.842Z,6.90
2019-02-21T07:50:00.334Z,6.90
2019-02-21T07:53:03.812Z,6.90
2019-02-21T07:56:07.399Z,6.80
2019-02-21T07:59:12.128Z,6.80
2019-02-21T08:02:15.741Z,6.80
2019-02-21T08:05:19.196Z,6.80
2019-02-21T08:08:22.604Z,6.90
2019-02-21T08:11:26.067Z,6.90
2019-02-21T08:14:29.510Z,6.90
2019-02-21T08:17:33.008Z,7.00
2019-02-21T08:20:40.915Z,7.00
2019-02-21T08:23:50.095Z,7.20
2019-02-21T08:26:46.776Z,7.30
2019-02-21T08:29:50.298Z,7.40
2019-02-21T08:33:01.343Z,7.60
2019-02-21T08:36:06.800Z,7.70
2019-02-21T08:39:10.288Z,7.90
2019-02-21T08:42:13.735Z,8.10
2019-02-21T08:45:17.897Z,8.30
2019-02-21T08:48:21.572Z,8.30
2019-02-21T08:51:24.987Z,8.40
2019-02-21T08:54:28.510Z,8.20
2019-02-21T08:57:32.009Z,8.20
2019-02-21T09:00:35.712Z,8.10
2019-02-21T09:03:39.218Z,8.00
2019-02-21T09:06:42.716Z,8.20
2019-02-21T09:09:46.167Z,8.30
2019-02-21T09:12:49.585Z,8.50
2019-02-21T09:15:53.055Z,8.60
2019-02-21T09:18:56.464Z,8.50
2019-02-21T09:21:59.914Z,8.50
2019-02-21T09:25:03.821Z,8.50
2019-02-21T09:28:07.293Z,8.40
2019-02-21T09:31:10.715Z,8.30
2019-02-21T09:34:21.090Z,8.50
2019-02-21T09:37:19.328Z,8.50
2019-02-21T09:40:22.820Z,8.50
2019-02-21T09:43:26.283Z,8.70
2019-02-21T09:46:29.732Z,8.70
2019-02-21T09:49:33.150Z,8.70
2019-02-21T09:52:36.587Z,8.80
2019-02-21T09:55:40.017Z,8.80
2019-02-21T09:58:45.789Z,8.80
2019-02-21T10:01:48.635Z,8.90
2019-02-21T10:04:52.091Z,8.90
2019-02-21T10:07:55.497Z,9.10
2019-02-21T10:11:00.788Z,9.20
2019-02-21T10:14:04.130Z,9.30
2019-02-21T10:17:07.652Z,9.50
2019-02-21T10:20:19.413Z,9.70
2019-02-21T10:23:24.370Z,9.90
2019-02-21T10:26:28.078Z,9.70
2019-02-21T10:29:31.544Z,9.50
2019-02-21T10:32:34.976Z,9.50
2019-02-21T10:35:38.421Z,9.70
2019-02-21T10:38:41.841Z,10.00
2019-02-21T10:41:45.313Z,10.20
2019-02-21T10:44:48.728Z,10.60
2019-02-21T10:47:52.197Z,11.10
2019-02-21T10:50:55.640Z,11.30
2019-02-21T10:53:59.191Z,11.60
2019-02-21T10:57:02.600Z,11.70
2019-02-21T11:00:09.143Z,11.80
2019-02-21T11:03:12.576Z,12.00
2019-02-21T11:06:16.031Z,12.30
2019-02-21T11:09:21.280Z,12.30
2019-02-21T11:12:24.763Z,12.00
2019-02-21T11:15:28.187Z,11.60
2019-02-21T11:18:31.635Z,11.40
2019-02-21T11:21:35.049Z,11.20
2019-02-21T11:24:38.501Z,11.10
2019-02-21T11:27:44.212Z,11.20
2019-02-21T11:30:47.928Z,11.20
2019-02-21T11:33:51.511Z,11.10
2019-02-21T11:36:58.844Z,11.10
2019-02-21T11:40:02.600Z,11.00
2019-02-21T11:43:06.405Z,10.90
2019-02-21T11:46:10.032Z,10.80
2019-02-21T11:49:13.744Z,10.60
2019-02-21T11:52:17.386Z,10.50
2019-02-21T11:55:23.247Z,10.50
2019-02-21T11:58:26.769Z,10.60
2019-02-21T12:01:30.436Z,10.60
2019-02-21T12:04:34.149Z,10.50
2019-02-21T12:07:37.833Z,10.30
2019-02-21T12:10:41.810Z,10.20
2019-02-21T12:13:45.722Z,10.20
2019-02-21T12:16:49.634Z,10.20
2019-02-21T12:19:53.319Z,10.10
2019-02-21T12:22:56.960Z,9.90
2019-02-21T12:26:00.521Z,9.80
2019-02-21T12:29:04.129Z,9.80
2019-02-21T12:32:07.608Z,9.90
2019-02-21T12:35:11.335Z,10.00
2019-02-21T12:38:15.042Z,10.10
2019-02-21T12:41:18.541Z,10.10
2019-02-21T12:44:22.346Z,10.20
2019-02-21T12:47:25.967Z,10.20
2019-02-21T12:50:29.470Z,10.10
2019-02-21T12:53:32.912Z,10.00
2019-02-21T12:56:36.653Z,10.00
2019-02-21T12:59:40.352Z,10.00
2019-02-21T13:02:44.018Z,10.10
2019-02-21T13:05:47.714Z,10.10
2019-02-21T13:08:51.317Z,10.20
2019-02-21T13:11:54.831Z,10.30
2019-02-21T13:14:58.244Z,10.50
2019-02-21T13:18:01.689Z,10.60
2019-02-21T13:21:05.110Z,10.70
2019-02-21T13:24:08.580Z,10.80
2019-02-21T13:27:12.101Z,10.80
2019-02-21T13:30:18.919Z,10.90
2019-02-21T13:33:22.378Z,10.90
2019-02-21T13:36:25.899Z,10.80
2019-02-21T13:39:29.331Z,10.80
2019-02-21T13:42:33.628Z,10.80
2019-02-21T13:45:37.045Z,10.80
2019-02-21T13:48:40.512Z,10.80
2019-02-21T13:51:43.948Z,10.80
2019-02-21T13:54:47.383Z,10.90
2019-02-21T13:57:50.849Z,10.90
2019-02-21T14:00:54.265Z,10.90
2019-02-21T14:03:57.803Z,10.90
2019-02-21T14:07:01.216Z,10.90
2019-02-21T14:10:07.528Z,10.90
2019-02-21T14:13:11.909Z,10.90
2019-02-21T14:16:15.515Z,10.90
2019-02-21T14:19:18.928Z,10.90
2019-02-21T14:22:22.379Z,11.00
2019-02-21T14:25:28.263Z,11.00
2019-02-21T14:28:31.020Z,11.00
2019-02-21T14:31:34.430Z,11.00
2019-02-21T14:34:37.888Z,11.00
2019-02-21T14:37:41.308Z,10.90
2019-02-21T14:40:44.781Z,10.90
2019-02-21T14:43:48.236Z,11.00
2019-02-21T14:46:51.696Z,10.90
2019-02-21T14:49:55.141Z,10.90
2019-02-21T14:52:58.576Z,10.80
2019-02-21T14:56:02.183Z,10.70
2019-02-21T14:59:05.607Z,10.60
2019-02-21T15:02:09.067Z,10.50
2019-02-21T15:05:12.574Z,10.50
2019-02-21T15:08:21.927Z,10.50
2019-02-21T15:11:24.315Z,10.50
2019-02-21T15:14:27.763Z,10.50
2019-02-21T15:17:31.316Z,10.60
2019-02-21T15:20:37.094Z,10.60
2019-02-21T15:23:39.912Z,10.60
2019-02-21T15:26:43.337Z,10.50
2019-02-21T15:29:46.783Z,10.50
2019-02-21T15:32:50.215Z,10.40
2019-02-21T15:35:53.687Z,10.30
2019-02-21T15:38:57.126Z,10.20
2019-02-21T15:42:00.568Z,10.00
2019-02-21T15:45:06.315Z,9.90
2019-02-21T15:48:09.887Z,9.80
2019-02-21T15:51:13.469Z,9.80
2019-02-21T15:54:16.932Z,9.70
2019-02-21T15:57:20.345Z,9.80
2019-02-21T16:00:24.726Z,9.80
2019-02-21T16:03:28.172Z,9.80
2019-02-21T16:06:31.589Z,9.70
2019-02-21T16:09:35.044Z,9.60
2019-02-21T16:12:38.820Z,9.60
2019-02-21T16:15:42.611Z,9.60
2019-02-21T16:18:46.036Z,9.60
2019-02-21T16:21:49.520Z,9.60
2019-02-21T16:24:53.021Z,9.60
2019-02-21T16:27:56.448Z,9.60
2019-02-21T16:30:59.906Z,9.60
2019-02-21T16:34:03.341Z,9.50
2019-02-21T16:37:06.803Z,9.50
2019-02-21T16:40:15.436Z,9.40
2019-02-21T16:43:18.889Z,9.50
2019-02-21T16:46:22.308Z,9.50
2019-02-21T16:49:25.751Z,9.40
2019-02-21T16:52:29.170Z,9.50
2019-02-21T16:55:32.639Z,9.50
2019-02-21T16:58:36.074Z,9.50
2019-02-21T17:01:39.620Z,9.50
2019-02-21T17:04:43.048Z,9.40
2019-02-21T17:07:46.489Z,9.40
2019-02-21T17:10:49.900Z,9.40
2019-02-21T17:13:53.351Z,9.40
2019-02-21T17:16:56.784Z,9.40
2019-02-21T17:20:00.302Z,9.40
2019-02-21T17:23:04.029Z,9.40
2019-02-21T17:26:07.550Z,9.40
2019-02-21T17:29:10.984Z,9.40
2019-02-21T17:32:14.439Z,9.40
2019-02-21T17:35:17.866Z,9.40
2019-02-21T17:38:21.328Z,9.30
2019-02-21T17:41:24.753Z,9.40
2019-02-21T17:44:28.264Z,9.40
2019-02-21T17:47:32.750Z,9.50
2019-02-21T17:50:36.411Z,9.50
2019-02-21T17:53:39.924Z,9.50
2019-02-21T17:56:43.386Z,9.40
2019-02-21T17:59:46.838Z,9.40
2019-02-21T18:02:50.290Z,9.40
2019-02-21T18:05:55.982Z,9.50
2019-02-21T18:08:58.888Z,9.40
2019-02-21T18:12:02.336Z,9.40
2019-02-21T18:15:07.992Z,9.40
2019-02-21T18:18:11.468Z,9.40
2019-02-21T18:21:14.899Z,9.50
2019-02-21T18:24:18.355Z,9.40
2019-02-21T18:27:21.774Z,9.40
2019-02-21T18:30:25.340Z,9.50
2019-02-21T18:33:28.784Z,9.40
2019-02-21T18:36:32.212Z,9.40
2019-02-21T18:39:35.672Z,9.40
2019-02-21T18:42:39.133Z,9.40
2019-02-21T18:45:42.571Z,9.40
2019-02-21T18:48:46.030Z,9.40
2019-02-21T18:51:49.572Z,9.50
2019-02-21T18:54:53.048Z,9.50
2019-02-21T18:57:56.482Z,9.50
2019-02-21T19:01:00.053Z,9.50
2019-02-21T19:04:03.568Z,9.60
2019-02-21T19:07:07.091Z,9.60
2019-02-21T19:10:17.865Z,9.60
2019-02-21T19:13:21.296Z,9.60
2019-02-21T19:16:24.763Z,9.60
2019-02-21T19:19:31.204Z,9.60
2019-02-21T19:22:34.640Z,9.50
2019-02-21T19:25:38.081Z,9.50
2019-02-21T19:28:41.525Z,9.50
2019-02-21T19:31:44.978Z,9.50
2019-02-21T19:34:48.398Z,9.50
2019-02-21T19:37:51.862Z,9.40
2019-02-21T19:40:55.275Z,9.40
2019-02-21T19:44:08.487Z,9.40
2019-02-21T19:47:03.877Z,9.40
2019-02-21T19:50:09.073Z,9.40
2019-02-21T19:53:14.374Z,9.30
2019-02-21T19:56:17.636Z,9.30
2019-02-21T19:59:21.076Z,9.30
2019-02-21T20:02:24.665Z,9.30
2019-02-21T20:05:28.461Z,9.20
2019-02-21T20:08:32.023Z,9.20
2019-02-21T20:11:36.063Z,9.20
2019-02-21T20:14:39.680Z,9.20
2019-02-21T20:17:43.195Z,9.10
2019-02-21T20:20:46.668Z,9.10
2019-02-21T20:23:50.159Z,9.10
2019-02-21T20:26:53.632Z,9.10
2019-02-21T20:29:57.047Z,9.00
2019-02-21T20:33:00.501Z,9.00
2019-02-21T20:36:03.977Z,8.90
2019-02-21T20:39:07.436Z,9.00
2019-02-21T20:42:10.876Z,8.90
2019-02-21T20:45:15.272Z,8.90
2019-02-21T20:48:20.349Z,8.90
2019-02-21T20:51:23.792Z,8.90
2019-02-21T20:54:27.377Z,8.90
2019-02-21T20:57:30.819Z,8.90
2019-02-21T21:00:34.260Z,8.90
2019-02-21T21:03:37.719Z,8.90
2019-02-21T21:06:41.175Z,8.80
2019-02-21T21:09:44.710Z,8.90
2019-02-21T21:12:48.140Z,8.90
2019-02-21T21:15:51.589Z,8.80
2019-02-21T21:18:55.044Z,8.90
2019-02-21T21:21:58.486Z,8.90
2019-02-21T21:25:01.926Z,8.80
2019-02-21T21:28:14.460Z,8.80
2019-02-21T21:31:17.912Z,8.90
2019-02-21T21:34:21.373Z,8.80
2019-02-21T21:37:24.792Z,8.80
2019-02-21T21:40:28.244Z,8.80
2019-02-21T21:43:31.652Z,8.80
2019-02-21T21:46:35.095Z,8.80
2019-02-21T21:49:38.543Z,8.80
2019-02-21T21:52:41.973Z,8.80
2019-02-21T21:55:45.414Z,8.80
2019-02-21T21:58:48.821Z,8.80
2019-02-21T22:01:52.274Z,8.70
2019-02-21T22:04:55.716Z,8.70
2019-02-21T22:07:59.174Z,8.70
2019-02-21T22:11:02.602Z,8.70
2019-02-21T22:14:06.016Z,8.70
2019-02-21T22:17:09.473Z,8.70
2019-02-21T22:20:12.984Z,8.60
2019-02-21T22:23:21.582Z,8.60
2019-02-21T22:26:25.017Z,8.60
2019-02-21T22:29:28.479Z,8.60
2019-02-21T22:32:31.996Z,8.60
2019-02-21T22:35:35.412Z,8.60
2019-02-21T22:38:38.868Z,8.60
2019-02-21T22:41:42.339Z,8.60
2019-02-21T22:44:45.788Z,8.60
2019-02-21T22:47:49.253Z,8.60
2019-02-21T22:50:52.660Z,8.50
2019-02-21T22:53:56.119Z,8.50
2019-02-21T22:56:59.535Z,8.60
2019-02-21T23:00:04.540Z,8.50
2019-02-21T23:03:11.995Z,8.50
2019-02-21T23:06:36.444Z,8.50
2019-02-21T23:09:39.876Z,8.50
2019-02-21T23:12:43.303Z,8.40
2019-02-21T23:15:46.774Z,8.40
2019-02-21T23:18:50.187Z,8.40
2019-02-21T23:21:53.641Z,8.40
2019-02-21T23:25:03.218Z,8.40
2019-02-21T23:28:06.648Z,8.40
2019-02-21T23:31:10.283Z,8.40
2019-02-21T23:34:15.355Z,8.40
2019-02-21T23:37:18.824Z,8.40
2019-02-21T23:40:22.303Z,8.40
2019-02-21T23:43:25.743Z,8.40
2019-02-21T23:46:29.156Z,8.40
2019-02-21T23:49:32.621Z,8.40
2019-02-21T23:52:36.041Z,8.40
2019-02-21T23:55:39.492Z,8.40
2019-02-21T23:58:43.064Z,8.40
